Adams, OK (73901)

10:28 AM CDT on August 30, 2016 (GMT -0500)
Adams | | Change Station
Active Advisory: Areal Flood Watch

Elev 2844 ft 36.75 °N, 101.08 °W | Updated 4 minutes ago

Mostly Cloudy
Mostly Cloudy
69.4 °F
Feels Like 69.4 °F
N
2.0
Wind Variable Wind from North
Gusts 4.0 mph

Today
High -- | Low -- °F
--% Chance of Precip.
Yesterday
High -- | Low -- °F
Precip. -- in
Pressure 30.26 in
Visibility 10.0 miles
Clouds Scattered Clouds 4400 ft
Scattered Clouds 5000 ft
Mostly Cloudy 11000 ft
Dew Point 67 °F
Humidity 91%
Rainfall 0.02 in
Snow Depth Not available.
7:14 AM 8:15 PM
Waning Crescent, 3% visible
METAR KLBL 301515Z 02004KT 10SM SCT044 SCT050 BKN110 22/18 A3026 RMK AO1
Pressure 30.26 in
Visibility 10.0 miles
Clouds Scattered Clouds 4400 ft
Scattered Clouds 5000 ft
Mostly Cloudy 11000 ft
Dew Point 67 °F
Humidity 91%
Rainfall 0.02 in
Snow Depth Not available.
7:14 AM 8:15 PM
Waning Crescent, 3% visible
METAR KLBL 301515Z 02004KT 10SM SCT044 SCT050 BKN110 22/18 A3026 RMK AO1

10-Day Weather Forecast

Almanac

Astronomy

Aug. 30, 2016 Rise Set
Actual Time
Civil Twilight
Nautical Twilight
Astronomical Twilight
Moon
Length of Visible Light
Length of Day
Tomorrow will be .
, % of the Moon is Illuminated

Today's Extremes

State Highs State Lows

Community

WunderPhotos

Upload Photos

1,935,855 photos uploaded!

WunderBlog® & News

Nearby

Air Quality

  Air Quality AQ Index Pollutant
Not available.

Snow Depth

Station Depth Elevation

Earthquake Activity

City Distance Mag. Time & Date
Minimum magnitude displayed is 2.5.

Coastal Water Temperatures

Place Temperature

Stations

Nearby Weather Stations

Station Location Temp. Windchill Dew Point Humidity Wind Precip. Elev Updated Type
                   

Watches & Warnings

Areal Flood Watch
Issued: 3:45 AM CDT Aug. 30, 2016 – National Weather Service

... Flood Watch now in effect through Wednesday evening...

The Flood Watch continues for

* portions of Oklahoma and Texas... including the following
areas... in Oklahoma... Beaver and Texas. In Texas...
Collingsworth... Donley... gray... Hansford... Hemphill...
Hutchinson... Lipscomb... Ochiltree... Roberts and Wheeler.

* Through 7 PM CDT Wednesday evening

* periods of scattered to numerous thunderstorms with heavy rain are
expected across most of the Texas and Oklahoma panhandles through
Wednesday evening. Areas in the eastern half of the Texas and
Oklahoma panhandles have already seen heavy rains over the past few
days resulting in saturated soil conditions. This combined with
additional rounds of heavy rain expected through Wednesday evening
will lead to excessive runoff and possible flooding.

Precautionary/preparedness actions...

A Flood Watch means there is a potential for flooding based on
current forecasts. You should monitor later forecasts and be
alert for possible flood warnings. Those living in areas prone to
flooding should be prepared to take action should flooding
develop.